Cartagena — 5AWY — position and weather

sailwx.info

Track history (hours):
 
Tides and Currents Weather Stations Pressure Air Temp Water Temp Dewpoint Dewpoint Depression Visibility Wind Speed Wind Dir Waves Ship Positions

Cartagena

Last reported at 2018-Jan-08 10:13 UTC. Time now 2018-Jan-21 12:38 UTC.
Position N 33°23' W 121°31'.
Warning: this ship's position is 13 days out of date.

Length 182 m; draft 10.5 m.

Type: Ship (hazmat cat C). MMSI: 642122014.

Date/timePositionNaut miles runAvg speedWind from/ knotsBaromVisibWave heightAir tempDewpointWater temp
2018-Jan-08 10:13N 33°23' W 121°31'313.4
2018-Jan-08 10:00N 33°26' W 121°33'713.0
2018-Jan-08 09:27N 33°31' W 121°38'612.8
2018-Jan-08 08:57N 33°37' W 121°42'713.0
2018-Jan-08 08:26N 33°42' W 121°47'613.0
2018-Jan-08 07:57N 33°47' W 121°52'613.2
2018-Jan-08 07:30N 33°52' W 121°56'613.2
2018-Jan-08 07:00N 33°57' W 121°60'713.3
2018-Jan-08 06:30N 34°03' W 122°03'713.2
2018-Jan-08 06:00N 34°09' W 122°07'713.0
2018-Jan-08 05:30N 34°15' W 122°11'713.5
2018-Jan-08 05:00N 34°21' W 122°15'713.4
2018-Jan-08 04:30N 34°27' W 122°18'713.3
2018-Jan-08 04:00N 34°33' W 122°22'713.4
2018-Jan-08 03:30N 34°39' W 122°26'713.6
2018-Jan-08 03:00N 34°45' W 122°30'713.4
2018-Jan-08 02:30N 34°51' W 122°33'713.5
2018-Jan-08 02:00N 34°57' W 122°37'713.6
2018-Jan-08 01:30N 35°03' W 122°41'1013.2
2018-Jan-08 00:46N 35°12' W 122°46'513.3
2018-Jan-08 00:23N 35°16' W 122°49'1013.3
2018-Jan-07 23:37N 35°25' W 122°55'113.4
2018-Jan-07 23:30N 35°26' W 122°56'713.6
2018-Jan-07 23:00N 35°33' W 122°60'713.5
2018-Jan-07 22:30N 35°39' W 123°03'713.8
2018-Jan-07 22:01N 35°45' W 123°07'714.1
2018-Jan-07 21:31N 35°51' W 123°11'713.5
2018-Jan-07 21:00N 35°57' W 123°15'713.7
2018-Jan-07 20:30N 36°03' W 123°19'713.5
2018-Jan-07 20:00N 36°09' W 123°23'713.3
2018-Jan-07 19:30N 36°15' W 123°27'1113.6
2018-Jan-07 18:42N 36°25' W 123°33'413.5
2018-Jan-07 18:26N 36°28' W 123°35'613.4
2018-Jan-07 18:00N 36°33' W 123°38'713.7
2018-Jan-07 17:29N 36°39' W 123°42'613.4
2018-Jan-07 17:00N 36°45' W 123°45'713.3
2018-Jan-07 16:29N 36°51' W 123°50'613.4
2018-Jan-07 16:00N 36°57' W 123°54'713.5
2018-Jan-07 15:30N 37°03' W 123°58'713.5
2018-Jan-07 15:00N 37°09' W 124°01'713.3
2018-Jan-07 14:29N 37°15' W 124°05'713.4
2018-Jan-07 13:58N 37°21' W 124°09'713.2
2018-Jan-07 13:28N 37°27' W 124°13'  
2018-Jan-05 08:49N 48°27' W 125°05'412.1
2018-Jan-05 08:29N 48°30' W 125°01'613.1
2018-Jan-05 08:00N 48°31' W 124°51'714.1
2018-Jan-05 07:30N 48°30' W 124°40'714.8
2018-Jan-05 07:00N 48°27' W 124°30'815.4
2018-Jan-05 06:30N 48°24' W 124°20'815.3
2018-Jan-05 06:00N 48°21' W 124°09'815.8
2018-Jan-05 05:30N 48°18' W 123°58'915.7
2018-Jan-05 04:57N 48°17' W 123°45'716.5
2018-Jan-05 04:30N 48°15' W 123°34'713.8
2018-Jan-05 04:00N 48°12' W 123°25'4 7.5
2018-Jan-05 03:27N 48°09' W 123°22'4 9.5
2018-Jan-05 03:00N 48°11' W 123°16'713.9
2018-Jan-05 02:30N 48°16' W 123°09'612.9
2018-Jan-05 02:00N 48°19' W 123°01'612.5
2018-Jan-05 01:30N 48°23' W 122°53'510.9
2018-Jan-05 01:00N 48°26' W 122°47'611.3
2018-Jan-05 00:30N 48°31' W 122°42'4 7.0
2018-Jan-05 00:00N 48°32' W 122°37'2 3.3
2018-Jan-04 23:30N 48°31' W 122°35'0 0.0
2018-Jan-04 22:58N 48°31' W 122°35'0 0.0
2018-Jan-04 22:28N 48°31' W 122°35'0 0.0
2018-Jan-04 21:58N 48°31' W 122°35'0 0.0
2018-Jan-04 21:28N 48°31' W 122°35'0 0.0
2018-Jan-04 20:58N 48°31' W 122°35'0 0.0
2018-Jan-04 20:28N 48°31' W 122°35'0 0.0
2018-Jan-04 19:58N 48°31' W 122°35'0 0.0
2018-Jan-04 19:28N 48°31' W 122°35'0 0.0
2018-Jan-04 18:58N 48°31' W 122°35'0 0.0
2018-Jan-04 18:28N 48°31' W 122°35'0 0.0
2018-Jan-04 17:52N 48°31' W 122°35'0 0.0
2018-Jan-04 17:22N 48°31' W 122°35'0 0.0
2018-Jan-04 16:58N 48°31' W 122°35'0 0.0
2018-Jan-04 16:28N 48°31' W 122°35'0 0.0
2018-Jan-04 15:58N 48°31' W 122°35'0 0.0
2018-Jan-04 15:28N 48°31' W 122°35'0 0.0
2018-Jan-04 14:58N 48°31' W 122°35'0 0.0
2018-Jan-04 14:28N 48°31' W 122°35'0 0.0
2018-Jan-04 13:58N 48°31' W 122°35'0 0.0
2018-Jan-04 13:28N 48°31' W 122°35'0 0.0
2018-Jan-04 12:58N 48°31' W 122°35'0 0.0
2018-Jan-04 12:28N 48°31' W 122°35'0 0.0
2018-Jan-04 11:58N 48°31' W 122°35'0 0.0
2018-Jan-04 11:28N 48°31' W 122°35'0 0.0
2018-Jan-04 10:52N 48°31' W 122°35'0 0.0
2018-Jan-04 10:22N 48°31' W 122°35'0 0.0
2018-Jan-04 09:58N 48°31' W 122°35'0 0.0
2018-Jan-04 09:28N 48°31' W 122°35'0 0.0
2018-Jan-04 08:58N 48°31' W 122°35'0 0.0
2018-Jan-04 08:28N 48°31' W 122°35'0 0.0
2018-Jan-04 07:58N 48°31' W 122°35'0 0.0
2018-Jan-04 07:28N 48°31' W 122°35'0 0.0
2018-Jan-04 06:52N 48°31' W 122°35'0 0.0
2018-Jan-04 06:28N 48°31' W 122°35'0 0.0
2018-Jan-04 05:58N 48°31' W 122°35'0 0.0
2018-Jan-04 05:16N 48°31' W 122°35'0 0.0
2018-Jan-04 04:58N 48°31' W 122°35'0 0.0
2018-Jan-04 04:22N 48°31' W 122°35'0 0.0
2018-Jan-04 03:58N 48°31' W 122°35'0 0.0
2018-Jan-04 03:28N 48°31' W 122°35'0 0.0
2018-Jan-04 02:58N 48°31' W 122°35'0 0.0
2018-Jan-04 02:28N 48°31' W 122°35'0 0.0
2018-Jan-04 01:58N 48°31' W 122°35'0 0.0
2018-Jan-04 01:28N 48°31' W 122°35'0 0.0
2018-Jan-04 00:52N 48°31' W 122°35'0 0.0
2018-Jan-04 00:22N 48°31' W 122°35'0 0.0
2018-Jan-03 23:58N 48°31' W 122°35'0 0.0
2018-Jan-03 23:28N 48°31' W 122°35'0 0.0
2018-Jan-03 22:58N 48°31' W 122°35'0 0.0
2018-Jan-03 22:28N 48°31' W 122°35'0 0.0
2018-Jan-03 21:58N 48°31' W 122°35'0 0.0
2018-Jan-03 21:28N 48°31' W 122°35'0 0.0
2018-Jan-03 20:52N 48°31' W 122°35'0 0.0
2018-Jan-03 20:28N 48°31' W 122°35'0 0.0
2018-Jan-03 19:58N 48°31' W 122°35'0 0.0
2018-Jan-03 19:28N 48°31' W 122°35'0 0.0
2018-Jan-03 18:58N 48°31' W 122°35'0 0.0
2018-Jan-03 18:28N 48°31' W 122°35'0 0.0
2018-Jan-03 17:58N 48°31' W 122°35'0 0.0
2018-Jan-03 17:22N 48°31' W 122°35'0 0.0
2018-Jan-03 16:58N 48°31' W 122°35'0 0.0
2018-Jan-03 16:28N 48°31' W 122°35'0 0.0
2018-Jan-03 15:58N 48°31' W 122°35'0 0.0
2018-Jan-03 15:22N 48°31' W 122°35'0 0.0
2018-Jan-03 14:52N 48°31' W 122°35'0 0.0
2018-Jan-03 14:22N 48°31' W 122°35'0 0.0
2018-Jan-03 12:34N 48°31' W 122°35'0 0.0
2018-Jan-03 12:28N 48°31' W 122°35'0 0.0
2018-Jan-03 11:46N 48°31' W 122°35'0 0.0
2018-Jan-03 11:16N 48°31' W 122°35'0 0.0
2018-Jan-03 10:58N 48°31' W 122°35'0 0.0
2018-Jan-03 10:22N 48°31' W 122°35'0 0.0
2018-Jan-03 09:58N 48°31' W 122°35'0 0.0
2018-Jan-03 09:28N 48°31' W 122°35'0 0.6
2018-Jan-03 09:00N 48°31' W 122°35'2 4.2
2018-Jan-03 08:30N 48°31' W 122°38'4 7.7
2018-Jan-03 08:00N 48°30' W 122°43'4 8.7
2018-Jan-03 07:31N 48°26' W 122°46'510.6
2018-Jan-03 07:00N 48°22' W 122°52'713.0
2018-Jan-03 06:29N 48°18' W 123°00'612.2
2018-Jan-03 06:00N 48°15' W 123°08'611.9
2018-Jan-03 05:29N 48°12' W 123°16'511.0
2018-Jan-03 04:59N 48°09' W 123°23'1 1.8
2018-Jan-03 04:29N 48°08' W 123°23'0 0.1
2018-Jan-03 03:53N 48°08' W 123°23'0 0.0
2018-Jan-03 03:29N 48°08' W 123°23'0 0.0
2018-Jan-03 02:56N 48°08' W 123°23'0 0.1
2018-Jan-03 02:29N 48°08' W 123°24'0 0.1
2018-Jan-03 01:59N 48°08' W 123°23'0 0.1
2018-Jan-03 01:29N 48°08' W 123°24'0 0.1
2018-Jan-03 00:59N 48°08' W 123°23'0 0.1
2018-Jan-03 00:14N 48°08' W 123°23'0 0.0
2018-Jan-02 23:59N 48°08' W 123°23'0 0.1
2018-Jan-02 23:29N 48°08' W 123°23'0 0.1
2018-Jan-02 22:59N 48°08' W 123°23'0 0.0
2018-Jan-02 22:29N 48°08' W 123°23'0 0.0
2018-Jan-02 21:59N 48°08' W 123°23'0 0.1
2018-Jan-02 21:29N 48°08' W 123°23'0 0.1
2018-Jan-02 20:56N 48°08' W 123°23'0 0.0
2018-Jan-02 20:29N 48°08' W 123°23'0 0.0
2018-Jan-02 19:41N 48°08' W 123°23'0 0.2
2018-Jan-02 19:17N 48°08' W 123°23'0 0.3
2018-Jan-02 18:53N 48°08' W 123°23'0 0.2
2018-Jan-02 18:29N 48°08' W 123°23'0 0.0
2018-Jan-02 17:59N 48°08' W 123°23'0 0.0
2018-Jan-02 17:26N 48°08' W 123°23'0 0.0
2018-Jan-02 16:59N 48°08' W 123°23'0 0.1
2018-Jan-02 16:23N 48°08' W 123°24'0 0.0
2018-Jan-02 15:59N 48°08' W 123°24'0 0.0
2018-Jan-02 15:26N 48°08' W 123°24'0 0.1
2018-Jan-02 14:59N 48°08' W 123°23'0 0.1
2018-Jan-02 14:29N 48°08' W 123°24'0 0.0
2018-Jan-02 13:59N 48°08' W 123°24'0 0.0
2018-Jan-02 13:29N 48°08' W 123°24'0 0.0
2018-Jan-02 12:59N 48°08' W 123°24'0 0.1
2018-Jan-02 12:29N 48°08' W 123°23'0 0.1
2018-Jan-02 11:56N 48°08' W 123°23'0 0.1
2018-Jan-02 11:29N 48°08' W 123°23'0 0.1
2018-Jan-02 10:53N 48°08' W 123°23'0 0.1
2018-Jan-02 10:26N 48°08' W 123°23'0 0.1
2018-Jan-02 09:59N 48°08' W 123°23'0 0.1
2018-Jan-02 09:29N 48°08' W 123°23'0 0.1
2018-Jan-02 07:20N 48°08' W 123°23'0 0.1
2018-Jan-02 06:53N 48°08' W 123°23'0 0.1
2018-Jan-02 06:23N 48°08' W 123°23'0 0.0
2018-Jan-02 05:56N 48°08' W 123°23'0 0.0
2018-Jan-02 05:29N 48°08' W 123°23'0 0.1
2018-Jan-02 04:29N 48°08' W 123°23'0 0.2
2018-Jan-02 03:59N 48°08' W 123°23'0 0.0
2018-Jan-02 03:23N 48°08' W 123°23'0 0.0
2018-Jan-02 02:59N 48°08' W 123°23'0 0.1
2018-Jan-02 02:29N 48°08' W 123°24'0 0.0
2018-Jan-02 01:59N 48°08' W 123°24'0 0.0
2018-Jan-02 01:29N 48°08' W 123°24'0 0.1
2018-Jan-02 00:56N 48°08' W 123°24'0 0.1
2018-Jan-02 00:29N 48°08' W 123°24'0 0.1
2018-Jan-01 23:59N 48°08' W 123°24'0 0.5
2018-Jan-01 23:29N 48°08' W 123°23'1 1.7
2018-Jan-01 23:01N 48°08' W 123°22'5 9.2
2018-Jan-01 22:30N 48°11' W 123°17'713.7
2018-Jan-01 22:00N 48°16' W 123°09'613.1
2018-Jan-01 21:30N 48°19' W 123°01'612.8
2018-Jan-01 21:00N 48°23' W 122°53'612.0
2018-Jan-01 20:30N 48°27' W 122°46'510.1
2018-Jan-01 20:00N 48°31' W 122°41'4 9.1
2018-Jan-01 19:30N 48°31' W 122°35'1 1.2
2018-Jan-01 18:58N 48°31' W 122°35'0 0.0
2018-Jan-01 18:28N 48°31' W 122°35'0 0.0
2018-Jan-01 17:58N 48°31' W 122°35'0 0.0
2018-Jan-01 17:28N 48°31' W 122°35'0 0.0
2018-Jan-01 14:46N 48°31' W 122°35'0 0.0
2018-Jan-01 14:22N 48°31' W 122°35'0 0.0
2018-Jan-01 13:52N 48°31' W 122°35'0 0.0
2018-Jan-01 04:46N 48°31' W 122°35'0 0.0
2018-Jan-01 03:58N 48°31' W 122°35'0 0.0
2018-Jan-01 03:28N 48°31' W 122°35'0 0.0
2018-Jan-01 02:58N 48°31' W 122°35'0 0.0
2018-Jan-01 02:28N 48°31' W 122°35'0 0.0
2018-Jan-01 01:58N 48°31' W 122°35'0 0.0
2018-Jan-01 01:10N 48°31' W 122°35'0 0.0
2018-Jan-01 00:28N 48°31' W 122°35'0 0.0
2017-Dec-31 20:52N 48°31' W 122°35'0 0.0
2017-Dec-31 20:28N 48°31' W 122°35'0 0.0
2017-Dec-31 19:58N 48°31' W 122°35'0 0.0
2017-Dec-31 19:28N 48°31' W 122°35'0 0.0
2017-Dec-31 18:58N 48°31' W 122°35'0 0.0
2017-Dec-31 18:22N 48°31' W 122°35'0 0.0
2017-Dec-31 14:50N 48°31' W 122°35'0 1.0
2017-Dec-31 14:30N 48°31' W 122°35'2 4.2
2017-Dec-31 14:00N 48°31' W 122°38'3 6.8
2017-Dec-31 13:30N 48°31' W 122°43'612.5
2017-Dec-31 13:00N 48°25' W 122°47'713.6
2017-Dec-31 12:30N 48°21' W 122°55'713.4
2017-Dec-31 12:00N 48°17' W 123°04'713.2
2017-Dec-31 11:30N 48°13' W 123°12'613.2
2017-Dec-31 11:00N 48°10' W 123°20'4 8.6
2017-Dec-31 10:30N 48°08' W 123°26'1 1.2
2017-Dec-31 09:59N 48°08' W 123°27'0 0.0
2017-Dec-31 09:29N 48°08' W 123°27'0 0.0
2017-Dec-31 08:56N 48°08' W 123°27'0 0.0
2017-Dec-31 08:26N 48°08' W 123°27'0 0.1
2017-Dec-31 07:53N 48°08' W 123°27'0 0.0
2017-Dec-31 07:23N 48°08' W 123°27'0 0.1
2017-Dec-31 06:59N 48°08' W 123°27'0 0.0
2017-Dec-31 06:29N 48°08' W 123°27'0 0.0
2017-Dec-31 05:59N 48°08' W 123°27'0 0.0
2017-Dec-31 05:29N 48°08' W 123°27'0 0.0
2017-Dec-31 04:53N 48°08' W 123°27'0 0.0
2017-Dec-31 04:26N 48°08' W 123°27'0 0.1
2017-Dec-31 03:50N 48°08' W 123°27'0 0.0
2017-Dec-31 03:29N 48°08' W 123°27'0 0.0
2017-Dec-31 02:41N 48°08' W 123°27'0 0.0
2017-Dec-31 02:29N 48°08' W 123°27'0 0.1
2017-Dec-31 01:53N 48°08' W 123°27'0 0.3
2017-Dec-31 01:29N 48°08' W 123°27'0 0.0
2017-Dec-31 00:59N 48°08' W 123°27'0 0.0
2017-Dec-31 00:29N 48°08' W 123°27'0 0.0
2017-Dec-30 23:59N 48°08' W 123°27'0 0.1
2017-Dec-30 23:26N 48°08' W 123°27'0 0.1
2017-Dec-30 22:59N 48°08' W 123°27'0 0.0
2017-Dec-30 22:23N 48°08' W 123°27'0 0.0
2017-Dec-30 21:53N 48°08' W 123°27'0 0.3
2017-Dec-30 21:29N 48°08' W 123°27'0 0.2
2017-Dec-30 20:59N 48°08' W 123°27'0 0.1
2017-Dec-30 20:26N 48°08' W 123°27'0 0.0
2017-Dec-30 19:59N 48°08' W 123°27'0 0.0
2017-Dec-30 19:26N 48°08' W 123°27'0 0.0
2017-Dec-30 18:44N 48°08' W 123°27'0 0.0
2017-Dec-30 18:29N 48°08' W 123°27'0 0.0
2017-Dec-30 17:56N 48°08' W 123°27'0 0.0
2017-Dec-30 17:26N 48°08' W 123°27'0 0.1
2017-Dec-30 16:56N 48°08' W 123°27'0 0.1
2017-Dec-30 16:29N 48°08' W 123°27'0 0.0
2017-Dec-30 15:53N 48°08' W 123°27'0 0.0
2017-Dec-30 15:23N 48°08' W 123°27'0 0.0
2017-Dec-30 14:53N 48°08' W 123°27'0 0.0
2017-Dec-30 14:26N 48°08' W 123°27'0 0.1
2017-Dec-30 13:53N 48°08' W 123°27'0 0.1
2017-Dec-30 13:29N 48°08' W 123°27'0 0.1
2017-Dec-30 12:59N 48°08' W 123°27'0 0.1
2017-Dec-30 12:29N 48°08' W 123°27'0 0.0
2017-Dec-30 11:59N 48°08' W 123°27'0 0.0
2017-Dec-30 11:26N 48°08' W 123°27'0 0.1
2017-Dec-30 10:59N 48°08' W 123°27'0 0.0
2017-Dec-30 10:26N 48°08' W 123°27'0 0.0
2017-Dec-30 09:56N 48°08' W 123°27'0 0.1
2017-Dec-30 09:26N 48°08' W 123°27'0 0.0
2017-Dec-30 08:59N 48°08' W 123°27'0 0.0
2017-Dec-30 08:23N 48°08' W 123°27'0 0.0
2017-Dec-30 07:50N 48°08' W 123°27'0 0.0
2017-Dec-30 07:11N 48°08' W 123°27'0 0.0
2017-Dec-30 06:59N 48°08' W 123°27'0 0.0
2017-Dec-30 06:26N 48°08' W 123°27'0 0.0
2017-Dec-30 05:59N 48°08' W 123°27'0 0.0
2017-Dec-30 05:29N 48°08' W 123°27'0 0.1
2017-Dec-30 04:59N 48°08' W 123°27'0 0.0
2017-Dec-30 04:26N 48°08' W 123°27'0 0.1
2017-Dec-30 03:59N 48°08' W 123°27'0 0.3
2017-Dec-30 03:26N 48°08' W 123°27'0 0.0
2017-Dec-30 02:59N 48°08' W 123°27'0 0.1
2017-Dec-30 02:20N 48°08' W 123°27'0 0.0
2017-Dec-30 01:59N 48°08' W 123°27'0 0.0
2017-Dec-30 01:29N 48°08' W 123°27'0 0.0
2017-Dec-30 00:56N 48°08' W 123°27'0 0.0
2017-Dec-30 00:29N 48°08' W 123°27'0 0.0
2017-Dec-29 23:56N 48°08' W 123°27'0 0.0
2017-Dec-29 23:20N 48°08' W 123°27'0 0.0
2017-Dec-29 22:59N 48°08' W 123°27'0 0.1
2017-Dec-29 22:29N 48°08' W 123°27'0 0.1
2017-Dec-29 21:59N 48°08' W 123°27'0 0.1
2017-Dec-29 21:29N 48°08' W 123°27'0 0.0
2017-Dec-29 20:59N 48°08' W 123°27'0 0.0
2017-Dec-29 20:29N 48°08' W 123°27'0 0.0
2017-Dec-29 19:56N 48°08' W 123°27'0 0.2
2017-Dec-29 19:29N 48°08' W 123°27'0 0.0
2017-Dec-29 18:53N 48°08' W 123°27'0 0.0
2017-Dec-29 18:26N 48°08' W 123°27'0 0.3
2017-Dec-29 18:00N 48°08' W 123°27'2 3.5
2017-Dec-29 17:30N 48°08' W 123°24'2 4.7
2017-Dec-29 17:00N 48°10' W 123°25'612.1
2017-Dec-29 16:30N 48°13' W 123°32'612.1
2017-Dec-29 16:00N 48°14' W 123°42'612.6
2017-Dec-29 15:30N 48°13' W 123°51'612.1
2017-Dec-29 15:00N 48°15' W 123°60'612.0
2017-Dec-29 14:29N 48°18' W 124°08'612.4
2017-Dec-29 13:59N 48°20' W 124°17'612.4
2017-Dec-29 13:30N 48°23' W 124°25'613.0
2017-Dec-29 13:00N 48°25' W 124°34'713.6
2017-Dec-29 12:31N 48°28' W 124°43'612.6
2017-Dec-29 12:00N 48°29' W 124°52'510.8
2017-Dec-29 11:31N 48°28' W 125°00'611.9
2017-Dec-29 10:59N 48°22' W 125°05'612.3
2017-Dec-29 10:30N 48°17' W 125°09'  
Track history (hours):
 
Tides and Currents Weather Stations Pressure Air Temp Water Temp Dewpoint Dewpoint Depression Visibility Wind Speed Wind Dir Waves Ship Positions

Cartagena

Last reported at 2018-Jan-08 10:13 UTC. Time now 2018-Jan-21 12:38 UTC.
Position N 33°23' W 121°31'.
Warning: this ship's position is 13 days out of date.

Length 182 m; draft 10.5 m.

Type: Ship (hazmat cat C). MMSI: 642122014.

Date/timePositionNaut miles runAvg speedWind from/ knotsBaromVisibWave heightAir tempDewpointWater temp
2018-Jan-08 10:13N 33°23' W 121°31'313.4
2018-Jan-08 10:00N 33°26' W 121°33'713.0
2018-Jan-08 09:27N 33°31' W 121°38'612.8
2018-Jan-08 08:57N 33°37' W 121°42'713.0
2018-Jan-08 08:26N 33°42' W 121°47'613.0
2018-Jan-08 07:57N 33°47' W 121°52'613.2
2018-Jan-08 07:30N 33°52' W 121°56'613.2
2018-Jan-08 07:00N 33°57' W 121°60'713.3
2018-Jan-08 06:30N 34°03' W 122°03'713.2
2018-Jan-08 06:00N 34°09' W 122°07'713.0
2018-Jan-08 05:30N 34°15' W 122°11'713.5
2018-Jan-08 05:00N 34°21' W 122°15'713.4
2018-Jan-08 04:30N 34°27' W 122°18'713.3
2018-Jan-08 04:00N 34°33' W 122°22'713.4
2018-Jan-08 03:30N 34°39' W 122°26'713.6
2018-Jan-08 03:00N 34°45' W 122°30'713.4
2018-Jan-08 02:30N 34°51' W 122°33'713.5
2018-Jan-08 02:00N 34°57' W 122°37'713.6
2018-Jan-08 01:30N 35°03' W 122°41'1013.2
2018-Jan-08 00:46N 35°12' W 122°46'513.3
2018-Jan-08 00:23N 35°16' W 122°49'1013.3
2018-Jan-07 23:37N 35°25' W 122°55'113.4
2018-Jan-07 23:30N 35°26' W 122°56'713.6
2018-Jan-07 23:00N 35°33' W 122°60'713.5
2018-Jan-07 22:30N 35°39' W 123°03'713.8
2018-Jan-07 22:01N 35°45' W 123°07'714.1
2018-Jan-07 21:31N 35°51' W 123°11'713.5
2018-Jan-07 21:00N 35°57' W 123°15'713.7
2018-Jan-07 20:30N 36°03' W 123°19'713.5
2018-Jan-07 20:00N 36°09' W 123°23'713.3
2018-Jan-07 19:30N 36°15' W 123°27'1113.6
2018-Jan-07 18:42N 36°25' W 123°33'413.5
2018-Jan-07 18:26N 36°28' W 123°35'613.4
2018-Jan-07 18:00N 36°33' W 123°38'713.7
2018-Jan-07 17:29N 36°39' W 123°42'613.4
2018-Jan-07 17:00N 36°45' W 123°45'713.3
2018-Jan-07 16:29N 36°51' W 123°50'613.4
2018-Jan-07 16:00N 36°57' W 123°54'713.5
2018-Jan-07 15:30N 37°03' W 123°58'713.5
2018-Jan-07 15:00N 37°09' W 124°01'713.3
2018-Jan-07 14:29N 37°15' W 124°05'713.4
2018-Jan-07 13:58N 37°21' W 124°09'713.2
2018-Jan-07 13:28N 37°27' W 124°13'  
2018-Jan-05 08:49N 48°27' W 125°05'412.1
2018-Jan-05 08:29N 48°30' W 125°01'613.1
2018-Jan-05 08:00N 48°31' W 124°51'714.1
2018-Jan-05 07:30N 48°30' W 124°40'714.8
2018-Jan-05 07:00N 48°27' W 124°30'815.4
2018-Jan-05 06:30N 48°24' W 124°20'815.3
2018-Jan-05 06:00N 48°21' W 124°09'815.8
2018-Jan-05 05:30N 48°18' W 123°58'915.7
2018-Jan-05 04:57N 48°17' W 123°45'716.5
2018-Jan-05 04:30N 48°15' W 123°34'713.8
2018-Jan-05 04:00N 48°12' W 123°25'4 7.5
2018-Jan-05 03:27N 48°09' W 123°22'4 9.5
2018-Jan-05 03:00N 48°11' W 123°16'713.9
2018-Jan-05 02:30N 48°16' W 123°09'612.9
2018-Jan-05 02:00N 48°19' W 123°01'612.5
2018-Jan-05 01:30N 48°23' W 122°53'510.9
2018-Jan-05 01:00N 48°26' W 122°47'611.3
2018-Jan-05 00:30N 48°31' W 122°42'4 7.0
2018-Jan-05 00:00N 48°32' W 122°37'2 3.3
2018-Jan-04 23:30N 48°31' W 122°35'0 0.0
2018-Jan-04 22:58N 48°31' W 122°35'0 0.0
2018-Jan-04 22:28N 48°31' W 122°35'0 0.0
2018-Jan-04 21:58N 48°31' W 122°35'0 0.0
2018-Jan-04 21:28N 48°31' W 122°35'0 0.0
2018-Jan-04 20:58N 48°31' W 122°35'0 0.0
2018-Jan-04 20:28N 48°31' W 122°35'0 0.0
2018-Jan-04 19:58N 48°31' W 122°35'0 0.0
2018-Jan-04 19:28N 48°31' W 122°35'0 0.0
2018-Jan-04 18:58N 48°31' W 122°35'0 0.0
2018-Jan-04 18:28N 48°31' W 122°35'0 0.0
2018-Jan-04 17:52N 48°31' W 122°35'0 0.0
2018-Jan-04 17:22N 48°31' W 122°35'0 0.0
2018-Jan-04 16:58N 48°31' W 122°35'0 0.0
2018-Jan-04 16:28N 48°31' W 122°35'0 0.0
2018-Jan-04 15:58N 48°31' W 122°35'0 0.0
2018-Jan-04 15:28N 48°31' W 122°35'0 0.0
2018-Jan-04 14:58N 48°31' W 122°35'0 0.0
2018-Jan-04 14:28N 48°31' W 122°35'0 0.0
2018-Jan-04 13:58N 48°31' W 122°35'0 0.0
2018-Jan-04 13:28N 48°31' W 122°35'0 0.0
2018-Jan-04 12:58N 48°31' W 122°35'0 0.0
2018-Jan-04 12:28N 48°31' W 122°35'0 0.0
2018-Jan-04 11:58N 48°31' W 122°35'0 0.0
2018-Jan-04 11:28N 48°31' W 122°35'0 0.0
2018-Jan-04 10:52N 48°31' W 122°35'0 0.0
2018-Jan-04 10:22N 48°31' W 122°35'0 0.0
2018-Jan-04 09:58N 48°31' W 122°35'0 0.0
2018-Jan-04 09:28N 48°31' W 122°35'0 0.0
2018-Jan-04 08:58N 48°31' W 122°35'0 0.0
2018-Jan-04 08:28N 48°31' W 122°35'0 0.0
2018-Jan-04 07:58N 48°31' W 122°35'0 0.0
2018-Jan-04 07:28N 48°31' W 122°35'0 0.0
2018-Jan-04 06:52N 48°31' W 122°35'0 0.0
2018-Jan-04 06:28N 48°31' W 122°35'0 0.0
2018-Jan-04 05:58N 48°31' W 122°35'0 0.0
2018-Jan-04 05:16N 48°31' W 122°35'0 0.0
2018-Jan-04 04:58N 48°31' W 122°35'0 0.0
2018-Jan-04 04:22N 48°31' W 122°35'0 0.0
2018-Jan-04 03:58N 48°31' W 122°35'0 0.0
2018-Jan-04 03:28N 48°31' W 122°35'0 0.0
2018-Jan-04 02:58N 48°31' W 122°35'0 0.0
2018-Jan-04 02:28N 48°31' W 122°35'0 0.0
2018-Jan-04 01:58N 48°31' W 122°35'0 0.0
2018-Jan-04 01:28N 48°31' W 122°35'0 0.0
2018-Jan-04 00:52N 48°31' W 122°35'0 0.0
2018-Jan-04 00:22N 48°31' W 122°35'0 0.0
2018-Jan-03 23:58N 48°31' W 122°35'0 0.0
2018-Jan-03 23:28N 48°31' W 122°35'0 0.0
2018-Jan-03 22:58N 48°31' W 122°35'0 0.0
2018-Jan-03 22:28N 48°31' W 122°35'0 0.0
2018-Jan-03 21:58N 48°31' W 122°35'0 0.0
2018-Jan-03 21:28N 48°31' W 122°35'0 0.0
2018-Jan-03 20:52N 48°31' W 122°35'0 0.0
2018-Jan-03 20:28N 48°31' W 122°35'0 0.0
2018-Jan-03 19:58N 48°31' W 122°35'0 0.0
2018-Jan-03 19:28N 48°31' W 122°35'0 0.0
2018-Jan-03 18:58N 48°31' W 122°35'0 0.0
2018-Jan-03 18:28N 48°31' W 122°35'0 0.0
2018-Jan-03 17:58N 48°31' W 122°35'0 0.0
2018-Jan-03 17:22N 48°31' W 122°35'0 0.0
2018-Jan-03 16:58N 48°31' W 122°35'0 0.0
2018-Jan-03 16:28N 48°31' W 122°35'0 0.0
2018-Jan-03 15:58N 48°31' W 122°35'0 0.0
2018-Jan-03 15:22N 48°31' W 122°35'0 0.0
2018-Jan-03 14:52N 48°31' W 122°35'0 0.0
2018-Jan-03 14:22N 48°31' W 122°35'0 0.0
2018-Jan-03 12:34N 48°31' W 122°35'0 0.0
2018-Jan-03 12:28N 48°31' W 122°35'0 0.0
2018-Jan-03 11:46N 48°31' W 122°35'0 0.0
2018-Jan-03 11:16N 48°31' W 122°35'0 0.0
2018-Jan-03 10:58N 48°31' W 122°35'0 0.0
2018-Jan-03 10:22N 48°31' W 122°35'0 0.0
2018-Jan-03 09:58N 48°31' W 122°35'0 0.0
2018-Jan-03 09:28N 48°31' W 122°35'0 0.6
2018-Jan-03 09:00N 48°31' W 122°35'2 4.2
2018-Jan-03 08:30N 48°31' W 122°38'4 7.7
2018-Jan-03 08:00N 48°30' W 122°43'4 8.7
2018-Jan-03 07:31N 48°26' W 122°46'510.6
2018-Jan-03 07:00N 48°22' W 122°52'713.0
2018-Jan-03 06:29N 48°18' W 123°00'612.2
2018-Jan-03 06:00N 48°15' W 123°08'611.9
2018-Jan-03 05:29N 48°12' W 123°16'511.0
2018-Jan-03 04:59N 48°09' W 123°23'1 1.8
2018-Jan-03 04:29N 48°08' W 123°23'0 0.1
2018-Jan-03 03:53N 48°08' W 123°23'0 0.0
2018-Jan-03 03:29N 48°08' W 123°23'0 0.0
2018-Jan-03 02:56N 48°08' W 123°23'0 0.1
2018-Jan-03 02:29N 48°08' W 123°24'0 0.1
2018-Jan-03 01:59N 48°08' W 123°23'0 0.1
2018-Jan-03 01:29N 48°08' W 123°24'0 0.1
2018-Jan-03 00:59N 48°08' W 123°23'0 0.1
2018-Jan-03 00:14N 48°08' W 123°23'0 0.0
2018-Jan-02 23:59N 48°08' W 123°23'0 0.1
2018-Jan-02 23:29N 48°08' W 123°23'0 0.1
2018-Jan-02 22:59N 48°08' W 123°23'0 0.0
2018-Jan-02 22:29N 48°08' W 123°23'0 0.0
2018-Jan-02 21:59N 48°08' W 123°23'0 0.1
2018-Jan-02 21:29N 48°08' W 123°23'0 0.1
2018-Jan-02 20:56N 48°08' W 123°23'0 0.0
2018-Jan-02 20:29N 48°08' W 123°23'0 0.0
2018-Jan-02 19:41N 48°08' W 123°23'0 0.2
2018-Jan-02 19:17N 48°08' W 123°23'0 0.3
2018-Jan-02 18:53N 48°08' W 123°23'0 0.2
2018-Jan-02 18:29N 48°08' W 123°23'0 0.0
2018-Jan-02 17:59N 48°08' W 123°23'0 0.0
2018-Jan-02 17:26N 48°08' W 123°23'0 0.0
2018-Jan-02 16:59N 48°08' W 123°23'0 0.1
2018-Jan-02 16:23N 48°08' W 123°24'0 0.0
2018-Jan-02 15:59N 48°08' W 123°24'0 0.0
2018-Jan-02 15:26N 48°08' W 123°24'0 0.1
2018-Jan-02 14:59N 48°08' W 123°23'0 0.1
2018-Jan-02 14:29N 48°08' W 123°24'0 0.0
2018-Jan-02 13:59N 48°08' W 123°24'0 0.0
2018-Jan-02 13:29N 48°08' W 123°24'0 0.0
2018-Jan-02 12:59N 48°08' W 123°24'0 0.1
2018-Jan-02 12:29N 48°08' W 123°23'0 0.1
2018-Jan-02 11:56N 48°08' W 123°23'0 0.1
2018-Jan-02 11:29N 48°08' W 123°23'0 0.1
2018-Jan-02 10:53N 48°08' W 123°23'0 0.1
2018-Jan-02 10:26N 48°08' W 123°23'0 0.1
2018-Jan-02 09:59N 48°08' W 123°23'0 0.1
2018-Jan-02 09:29N 48°08' W 123°23'0 0.1
2018-Jan-02 07:20N 48°08' W 123°23'0 0.1
2018-Jan-02 06:53N 48°08' W 123°23'0 0.1
2018-Jan-02 06:23N 48°08' W 123°23'0 0.0
2018-Jan-02 05:56N 48°08' W 123°23'0 0.0
2018-Jan-02 05:29N 48°08' W 123°23'0 0.1
2018-Jan-02 04:29N 48°08' W 123°23'0 0.2
2018-Jan-02 03:59N 48°08' W 123°23'0 0.0
2018-Jan-02 03:23N 48°08' W 123°23'0 0.0
2018-Jan-02 02:59N 48°08' W 123°23'0 0.1
2018-Jan-02 02:29N 48°08' W 123°24'0 0.0
2018-Jan-02 01:59N 48°08' W 123°24'0 0.0
2018-Jan-02 01:29N 48°08' W 123°24'0 0.1
2018-Jan-02 00:56N 48°08' W 123°24'0 0.1
2018-Jan-02 00:29N 48°08' W 123°24'0 0.1
2018-Jan-01 23:59N 48°08' W 123°24'0 0.5
2018-Jan-01 23:29N 48°08' W 123°23'1 1.7
2018-Jan-01 23:01N 48°08' W 123°22'5 9.2
2018-Jan-01 22:30N 48°11' W 123°17'713.7
2018-Jan-01 22:00N 48°16' W 123°09'613.1
2018-Jan-01 21:30N 48°19' W 123°01'612.8
2018-Jan-01 21:00N 48°23' W 122°53'612.0
2018-Jan-01 20:30N 48°27' W 122°46'510.1
2018-Jan-01 20:00N 48°31' W 122°41'4 9.1
2018-Jan-01 19:30N 48°31' W 122°35'1 1.2
2018-Jan-01 18:58N 48°31' W 122°35'0 0.0
2018-Jan-01 18:28N 48°31' W 122°35'0 0.0
2018-Jan-01 17:58N 48°31' W 122°35'0 0.0
2018-Jan-01 17:28N 48°31' W 122°35'0 0.0
2018-Jan-01 14:46N 48°31' W 122°35'0 0.0
2018-Jan-01 14:22N 48°31' W 122°35'0 0.0
2018-Jan-01 13:52N 48°31' W 122°35'0 0.0
2018-Jan-01 04:46N 48°31' W 122°35'0 0.0
2018-Jan-01 03:58N 48°31' W 122°35'0 0.0
2018-Jan-01 03:28N 48°31' W 122°35'0 0.0
2018-Jan-01 02:58N 48°31' W 122°35'0 0.0
2018-Jan-01 02:28N 48°31' W 122°35'0 0.0
2018-Jan-01 01:58N 48°31' W 122°35'0 0.0
2018-Jan-01 01:10N 48°31' W 122°35'0 0.0
2018-Jan-01 00:28N 48°31' W 122°35'0 0.0
2017-Dec-31 20:52N 48°31' W 122°35'0 0.0
2017-Dec-31 20:28N 48°31' W 122°35'0 0.0
2017-Dec-31 19:58N 48°31' W 122°35'0 0.0
2017-Dec-31 19:28N 48°31' W 122°35'0 0.0
2017-Dec-31 18:58N 48°31' W 122°35'0 0.0
2017-Dec-31 18:22N 48°31' W 122°35'0 0.0
2017-Dec-31 14:50N 48°31' W 122°35'0 1.0
2017-Dec-31 14:30N 48°31' W 122°35'2 4.2
2017-Dec-31 14:00N 48°31' W 122°38'3 6.8
2017-Dec-31 13:30N 48°31' W 122°43'612.5
2017-Dec-31 13:00N 48°25' W 122°47'713.6
2017-Dec-31 12:30N 48°21' W 122°55'713.4
2017-Dec-31 12:00N 48°17' W 123°04'713.2
2017-Dec-31 11:30N 48°13' W 123°12'613.2
2017-Dec-31 11:00N 48°10' W 123°20'4 8.6
2017-Dec-31 10:30N 48°08' W 123°26'1 1.2
2017-Dec-31 09:59N 48°08' W 123°27'0 0.0
2017-Dec-31 09:29N 48°08' W 123°27'0 0.0
2017-Dec-31 08:56N 48°08' W 123°27'0 0.0
2017-Dec-31 08:26N 48°08' W 123°27'0 0.1
2017-Dec-31 07:53N 48°08' W 123°27'0 0.0
2017-Dec-31 07:23N 48°08' W 123°27'0 0.1
2017-Dec-31 06:59N 48°08' W 123°27'0 0.0
2017-Dec-31 06:29N 48°08' W 123°27'0 0.0
2017-Dec-31 05:59N 48°08' W 123°27'0 0.0
2017-Dec-31 05:29N 48°08' W 123°27'0 0.0
2017-Dec-31 04:53N 48°08' W 123°27'0 0.0
2017-Dec-31 04:26N 48°08' W 123°27'0 0.1
2017-Dec-31 03:50N 48°08' W 123°27'0 0.0
2017-Dec-31 03:29N 48°08' W 123°27'0 0.0
2017-Dec-31 02:41N 48°08' W 123°27'0 0.0
2017-Dec-31 02:29N 48°08' W 123°27'0 0.1
2017-Dec-31 01:53N 48°08' W 123°27'0 0.3
2017-Dec-31 01:29N 48°08' W 123°27'0 0.0
2017-Dec-31 00:59N 48°08' W 123°27'0 0.0
2017-Dec-31 00:29N 48°08' W 123°27'0 0.0
2017-Dec-30 23:59N 48°08' W 123°27'0 0.1
2017-Dec-30 23:26N 48°08' W 123°27'0 0.1
2017-Dec-30 22:59N 48°08' W 123°27'0 0.0
2017-Dec-30 22:23N 48°08' W 123°27'0 0.0
2017-Dec-30 21:53N 48°08' W 123°27'0 0.3
2017-Dec-30 21:29N 48°08' W 123°27'0 0.2
2017-Dec-30 20:59N 48°08' W 123°27'0 0.1
2017-Dec-30 20:26N 48°08' W 123°27'0 0.0
2017-Dec-30 19:59N 48°08' W 123°27'0 0.0
2017-Dec-30 19:26N 48°08' W 123°27'0 0.0
2017-Dec-30 18:44N 48°08' W 123°27'0 0.0
2017-Dec-30 18:29N 48°08' W 123°27'0 0.0
2017-Dec-30 17:56N 48°08' W 123°27'0 0.0
2017-Dec-30 17:26N 48°08' W 123°27'0 0.1
2017-Dec-30 16:56N 48°08' W 123°27'0 0.1
2017-Dec-30 16:29N 48°08' W 123°27'0 0.0
2017-Dec-30 15:53N 48°08' W 123°27'0 0.0
2017-Dec-30 15:23N 48°08' W 123°27'0 0.0
2017-Dec-30 14:53N 48°08' W 123°27'0 0.0
2017-Dec-30 14:26N 48°08' W 123°27'0 0.1
2017-Dec-30 13:53N 48°08' W 123°27'0 0.1
2017-Dec-30 13:29N 48°08' W 123°27'0 0.1
2017-Dec-30 12:59N 48°08' W 123°27'0 0.1
2017-Dec-30 12:29N 48°08' W 123°27'0 0.0
2017-Dec-30 11:59N 48°08' W 123°27'0 0.0
2017-Dec-30 11:26N 48°08' W 123°27'0 0.1
2017-Dec-30 10:59N 48°08' W 123°27'0 0.0
2017-Dec-30 10:26N 48°08' W 123°27'0 0.0
2017-Dec-30 09:56N 48°08' W 123°27'0 0.1
2017-Dec-30 09:26N 48°08' W 123°27'0 0.0
2017-Dec-30 08:59N 48°08' W 123°27'0 0.0
2017-Dec-30 08:23N 48°08' W 123°27'0 0.0
2017-Dec-30 07:50N 48°08' W 123°27'0 0.0
2017-Dec-30 07:11N 48°08' W 123°27'0 0.0
2017-Dec-30 06:59N 48°08' W 123°27'0 0.0
2017-Dec-30 06:26N 48°08' W 123°27'0 0.0
2017-Dec-30 05:59N 48°08' W 123°27'0 0.0
2017-Dec-30 05:29N 48°08' W 123°27'0 0.1
2017-Dec-30 04:59N 48°08' W 123°27'0 0.0
2017-Dec-30 04:26N 48°08' W 123°27'0 0.1
2017-Dec-30 03:59N 48°08' W 123°27'0 0.3
2017-Dec-30 03:26N 48°08' W 123°27'0 0.0
2017-Dec-30 02:59N 48°08' W 123°27'0 0.1
2017-Dec-30 02:20N 48°08' W 123°27'0 0.0
2017-Dec-30 01:59N 48°08' W 123°27'0 0.0
2017-Dec-30 01:29N 48°08' W 123°27'0 0.0
2017-Dec-30 00:56N 48°08' W 123°27'0 0.0
2017-Dec-30 00:29N 48°08' W 123°27'0 0.0
2017-Dec-29 23:56N 48°08' W 123°27'0 0.0
2017-Dec-29 23:20N 48°08' W 123°27'0 0.0
2017-Dec-29 22:59N 48°08' W 123°27'0 0.1
2017-Dec-29 22:29N 48°08' W 123°27'0 0.1
2017-Dec-29 21:59N 48°08' W 123°27'0 0.1
2017-Dec-29 21:29N 48°08' W 123°27'0 0.0
2017-Dec-29 20:59N 48°08' W 123°27'0 0.0
2017-Dec-29 20:29N 48°08' W 123°27'0 0.0
2017-Dec-29 19:56N 48°08' W 123°27'0 0.2
2017-Dec-29 19:29N 48°08' W 123°27'0 0.0
2017-Dec-29 18:53N 48°08' W 123°27'0 0.0
2017-Dec-29 18:26N 48°08' W 123°27'0 0.3
2017-Dec-29 18:00N 48°08' W 123°27'2 3.5
2017-Dec-29 17:30N 48°08' W 123°24'2 4.7
2017-Dec-29 17:00N 48°10' W 123°25'612.1
2017-Dec-29 16:30N 48°13' W 123°32'612.1
2017-Dec-29 16:00N 48°14' W 123°42'612.6
2017-Dec-29 15:30N 48°13' W 123°51'612.1
2017-Dec-29 15:00N 48°15' W 123°60'612.0
2017-Dec-29 14:29N 48°18' W 124°08'612.4
2017-Dec-29 13:59N 48°20' W 124°17'612.4
2017-Dec-29 13:30N 48°23' W 124°25'613.0
2017-Dec-29 13:00N 48°25' W 124°34'713.6
2017-Dec-29 12:31N 48°28' W 124°43'612.6
2017-Dec-29 12:00N 48°29' W 124°52'510.8
2017-Dec-29 11:31N 48°28' W 125°00'611.9
2017-Dec-29 10:59N 48°22' W 125°05'612.3
2017-Dec-29 10:30N 48°17' W 125°09'  

Dump ship's entire track history